createdAt,value
2022-11-01T00:00:19.801Z,100.00
2022-11-01T00:03:25.505Z,100.00
2022-11-01T00:06:31.240Z,100.00
2022-11-01T00:09:37.802Z,100.00
2022-11-01T00:12:44.744Z,100.00
2022-11-01T00:15:49.974Z,100.00
2022-11-01T00:18:55.765Z,100.00
2022-11-01T00:22:01.104Z,100.00
2022-11-01T00:25:07.028Z,100.00
2022-11-01T00:28:12.809Z,100.00
2022-11-01T00:31:20.870Z,100.00
2022-11-01T00:34:26.316Z,100.00
2022-11-01T00:37:32.166Z,100.00
2022-11-01T00:40:37.813Z,100.00
2022-11-01T00:43:42.952Z,100.00
2022-11-01T00:46:48.080Z,100.00
2022-11-01T00:49:53.169Z,100.00
2022-11-01T00:52:58.628Z,100.00
2022-11-01T00:56:06.761Z,100.00
2022-11-01T00:59:12.057Z,100.00
2022-11-01T01:02:17.716Z,100.00
2022-11-01T01:05:23.642Z,100.00
2022-11-01T01:08:29.047Z,100.00
2022-11-01T01:11:34.723Z,100.00
2022-11-01T01:14:40.469Z,100.00
2022-11-01T01:17:46.019Z,100.00
2022-11-01T01:20:51.539Z,100.00
2022-11-01T01:23:57.038Z,100.00
2022-11-01T01:27:03.738Z,100.00
2022-11-01T01:30:09.747Z,100.00
2022-11-01T01:33:15.268Z,100.00
2022-11-01T01:36:21.279Z,100.00
2022-11-01T01:39:26.613Z,100.00
2022-11-01T01:42:41.290Z,100.00
2022-11-01T01:45:47.294Z,100.00
2022-11-01T01:48:57.977Z,100.00
2022-11-01T01:52:05.078Z,100.00
2022-11-01T01:55:12.767Z,100.00
2022-11-01T01:58:23.126Z,100.00
2022-11-01T02:01:29.634Z,100.00
2022-11-01T02:04:49.776Z,100.00
2022-11-01T02:07:57.213Z,100.00
2022-11-01T02:11:07.716Z,100.00
2022-11-01T02:14:13.783Z,100.00
2022-11-01T02:17:22.543Z,100.00
2022-11-01T02:20:43.784Z,100.00
2022-11-01T02:24:07.645Z,100.00
2022-11-01T02:27:24.981Z,100.00
2022-11-01T02:30:43.788Z,100.00
2022-11-01T02:34:01.835Z,100.00
2022-11-01T02:37:47.995Z,100.00
2022-11-01T02:40:59.786Z,100.00
2022-11-01T02:44:12.849Z,100.00
2022-11-01T02:47:19.567Z,100.00
2022-11-01T02:50:28.345Z,100.00
2022-11-01T02:53:33.927Z,100.00
2022-11-01T02:56:39.724Z,100.00
2022-11-01T02:59:47.851Z,100.00
2022-11-01T03:03:03.776Z,100.00
2022-11-01T03:06:18.965Z,100.00
2022-11-01T03:09:25.477Z,100.00
2022-11-01T03:12:36.051Z,100.00
2022-11-01T03:15:57.613Z,100.00
2022-11-01T03:19:21.600Z,100.00
2022-11-01T03:22:41.671Z,100.00
2022-11-01T03:25:55.656Z,100.00
2022-11-01T03:29:07.115Z,100.00
2022-11-01T03:32:15.379Z,100.00
2022-11-01T03:35:25.017Z,100.00
2022-11-01T03:38:36.335Z,100.00
2022-11-01T03:41:49.740Z,100.00
2022-11-01T03:45:03.285Z,100.00
2022-11-01T03:48:09.027Z,100.00
2022-11-01T03:51:14.749Z,100.00
2022-11-01T03:54:20.403Z,100.00
2022-11-01T03:57:26.049Z,100.00
2022-11-01T04:00:34.752Z,100.00
2022-11-01T04:03:40.333Z,100.00
2022-11-01T04:06:45.563Z,100.00
2022-11-01T04:09:51.503Z,100.00
2022-11-01T04:12:57.879Z,100.00
2022-11-01T04:16:21.786Z,100.00
2022-11-01T04:19:45.878Z,100.00
2022-11-01T04:22:51.341Z,100.00
2022-11-01T04:25:57.241Z,100.00
2022-11-01T04:29:02.813Z,100.00
2022-11-01T04:32:08.158Z,100.00
2022-11-01T04:35:13.484Z,100.00
2022-11-01T04:38:18.736Z,100.00
2022-11-01T04:41:28.977Z,100.00
2022-11-01T04:44:34.308Z,100.00
2022-11-01T04:47:39.995Z,100.00
2022-11-01T04:50:46.282Z,100.00
2022-11-01T04:53:51.764Z,100.00
2022-11-01T04:56:59.083Z,100.00
2022-11-01T05:00:05.399Z,100.00
2022-11-01T05:03:12.293Z,100.00
2022-11-01T05:06:18.390Z,100.00
2022-11-01T05:09:24.084Z,100.00
2022-11-01T05:12:29.637Z,100.00
2022-11-01T05:15:39.991Z,100.00
2022-11-01T05:18:45.731Z,100.00
2022-11-01T05:21:51.238Z,100.00
2022-11-01T05:24:56.768Z,100.00
2022-11-01T05:28:08.535Z,100.00
2022-11-01T05:31:14.283Z,100.00
2022-11-01T05:34:19.746Z,100.00
2022-11-01T05:37:28.049Z,100.00
2022-11-01T05:40:34.201Z,100.00
2022-11-01T05:43:39.397Z,100.00
2022-11-01T05:46:45.080Z,100.00
2022-11-01T05:49:50.407Z,100.00
2022-11-01T05:52:55.885Z,100.00
2022-11-01T05:56:01.753Z,100.00
2022-11-01T05:59:06.868Z,100.00
2022-11-01T06:02:12.117Z,100.00
2022-11-01T06:05:17.453Z,100.00
2022-11-01T06:08:22.395Z,100.00
2022-11-01T06:11:28.221Z,100.00
2022-11-01T06:17:43.969Z,100.00
2022-11-01T06:20:49.776Z,100.00
2022-11-01T06:23:54.932Z,100.00
2022-11-01T06:27:00.149Z,100.00
2022-11-01T06:30:05.976Z,100.00
2022-11-01T06:33:11.332Z,100.00
2022-11-01T06:36:16.971Z,100.00
2022-11-01T06:39:22.251Z,100.00
2022-11-01T06:42:27.395Z,100.00
2022-11-01T06:45:33.162Z,100.00
2022-11-01T06:48:38.969Z,100.00
2022-11-01T06:51:44.342Z,100.00
2022-11-01T06:54:49.533Z,100.00
2022-11-01T06:58:00.284Z,100.00
2022-11-01T07:01:06.211Z,100.00
2022-11-01T07:07:22.682Z,100.00
2022-11-01T07:10:29.217Z,100.00
2022-11-01T07:13:37.427Z,100.00
2022-11-01T07:16:43.070Z,100.00
2022-11-01T07:19:48.600Z,100.00
2022-11-01T07:23:02.365Z,100.00
2022-11-01T07:26:08.026Z,100.00
2022-11-01T07:29:13.772Z,100.00
2022-11-01T07:32:19.212Z,100.00
2022-11-01T07:35:25.650Z,100.00
2022-11-01T07:38:31.069Z,100.00
2022-11-01T07:41:36.599Z,100.00
2022-11-01T07:44:45.758Z,100.00
2022-11-01T07:47:51.151Z,100.00
2022-11-01T07:50:57.691Z,100.00
2022-11-01T07:54:03.226Z,100.00
2022-11-01T07:57:09.674Z,100.00
2022-11-01T08:00:15.967Z,100.00
2022-11-01T08:03:22.521Z,100.00
2022-11-01T08:06:27.942Z,100.00
2022-11-01T08:09:34.809Z,100.00
2022-11-01T08:12:40.144Z,100.00
2022-11-01T08:15:48.000Z,100.00
2022-11-01T08:18:55.378Z,100.00
2022-11-01T08:22:01.748Z,100.00
2022-11-01T08:25:09.044Z,100.00
2022-11-01T08:28:18.574Z,100.00
2022-11-01T08:31:25.023Z,100.00
2022-11-01T08:34:31.281Z,100.00
2022-11-01T08:37:36.693Z,100.00
2022-11-01T08:40:41.866Z,100.00
2022-11-01T08:43:47.435Z,100.00
2022-11-01T08:46:56.101Z,100.00
2022-11-01T08:50:03.272Z,100.00
2022-11-01T08:53:13.800Z,100.00
2022-11-01T08:56:21.200Z,100.00
2022-11-01T08:59:26.661Z,100.00
2022-11-01T09:02:32.471Z,100.00
2022-11-01T09:05:38.161Z,100.00
2022-11-01T09:08:43.744Z,100.00
2022-11-01T09:11:49.606Z,100.00
2022-11-01T09:14:55.261Z,100.00
2022-11-01T09:18:06.357Z,100.00
2022-11-01T09:21:12.119Z,100.00
2022-11-01T09:24:18.464Z,100.00
2022-11-01T09:27:24.077Z,100.00
2022-11-01T09:30:30.734Z,100.00
2022-11-01T09:33:36.667Z,100.00
2022-11-01T09:36:42.207Z,100.00
2022-11-01T09:39:47.675Z,100.00
2022-11-01T09:42:59.114Z,100.00
2022-11-01T09:46:15.114Z,100.00
2022-11-01T09:49:31.514Z,100.00
2022-11-01T09:52:36.955Z,100.00
2022-11-01T09:56:13.043Z,100.00
2022-11-01T09:59:27.643Z,100.00
2022-11-01T10:02:57.681Z,100.00
2022-11-01T10:06:15.750Z,100.00
2022-11-01T10:09:39.578Z,100.00
2022-11-01T10:13:16.425Z,100.00
2022-11-01T10:16:36.793Z,100.00
2022-11-01T10:19:47.482Z,100.00
2022-11-01T10:22:52.816Z,100.00
2022-11-01T10:25:58.456Z,100.00
2022-11-01T10:29:07.700Z,100.00
2022-11-01T10:32:38.709Z,100.00
2022-11-01T10:35:52.159Z,100.00
2022-11-01T10:39:53.529Z,100.00
2022-11-01T10:42:46.816Z,100.00
2022-11-01T10:45:57.215Z,100.00
2022-11-01T10:49:07.157Z,100.00
2022-11-01T10:52:18.096Z,100.00
2022-11-01T10:55:49.784Z,100.00
2022-11-01T10:58:54.982Z,100.00
2022-11-01T11:02:03.352Z,100.00
2022-11-01T11:05:14.160Z,100.00
2022-11-01T11:08:22.799Z,100.00
2022-11-01T11:11:37.279Z,100.00
2022-11-01T11:14:49.267Z,100.00
2022-11-01T11:17:58.496Z,100.00
2022-11-01T11:21:09.203Z,100.00
2022-11-01T11:24:21.150Z,100.00
2022-11-01T11:27:31.201Z,100.00
2022-11-01T11:30:36.875Z,100.00
2022-11-01T11:34:38.452Z,100.00
2022-11-01T11:38:06.796Z,100.00
2022-11-01T11:41:27.320Z,100.00
2022-11-01T11:44:41.457Z,100.00
2022-11-01T11:47:50.331Z,100.00
2022-11-01T11:51:16.160Z,100.00
2022-11-01T11:54:32.000Z,100.00
2022-11-01T11:57:37.469Z,100.00
2022-11-01T12:00:48.242Z,100.00
2022-11-01T12:04:05.511Z,100.00
2022-11-01T12:07:40.191Z,100.00
2022-11-01T12:10:47.007Z,100.00
2022-11-01T12:14:22.087Z,100.00
2022-11-01T12:17:45.902Z,100.00
2022-11-01T12:20:53.149Z,100.00
2022-11-01T12:24:27.408Z,100.00
2022-11-01T12:27:36.464Z,100.00
2022-11-01T12:30:43.756Z,100.00
2022-11-01T12:33:59.110Z,99.90
2022-11-01T12:37:18.253Z,100.00
2022-11-01T12:40:29.020Z,100.00
2022-11-01T12:43:43.183Z,100.00
2022-11-01T12:47:33.893Z,100.00
2022-11-01T12:50:54.501Z,99.51
2022-11-01T12:54:23.244Z,100.00
2022-11-01T12:57:28.874Z,96.32
2022-11-01T13:01:05.791Z,93.52
2022-11-01T13:04:30.338Z,94.88
2022-11-01T13:07:57.811Z,96.82
2022-11-01T13:11:26.041Z,96.01
2022-11-01T13:15:01.780Z,95.42
2022-11-01T13:18:21.451Z,96.59
2022-11-01T13:21:56.624Z,97.15
2022-11-01T13:25:13.920Z,97.43
2022-11-01T13:28:53.155Z,97.81
2022-11-01T13:32:14.274Z,98.71
2022-11-01T13:35:43.127Z,99.90
2022-11-01T13:38:59.298Z,100.00
2022-11-01T13:42:17.045Z,100.00
2022-11-01T13:45:54.286Z,99.78
2022-11-01T13:49:08.466Z,100.00
2022-11-01T13:52:13.876Z,99.88
2022-11-01T13:55:27.732Z,100.00
2022-11-01T13:58:34.126Z,100.00
2022-11-01T14:01:42.523Z,100.00
2022-11-01T14:05:03.388Z,100.00
2022-11-01T14:08:16.004Z,100.00
2022-11-01T14:11:45.254Z,100.00
2022-11-01T14:14:52.211Z,100.00
2022-11-01T14:18:11.624Z,100.00
2022-11-01T14:21:32.257Z,100.00
2022-11-01T14:25:15.887Z,100.00
2022-11-01T14:28:21.793Z,100.00
2022-11-01T14:31:32.398Z,100.00
2022-11-01T14:34:39.300Z,100.00
2022-11-01T14:37:54.274Z,100.00
2022-11-01T14:41:00.806Z,100.00
2022-11-01T14:44:18.691Z,100.00
2022-11-01T14:47:41.209Z,100.00
2022-11-01T14:51:17.141Z,100.00
2022-11-01T14:54:37.186Z,100.00
2022-11-01T14:57:43.486Z,100.00
2022-11-01T15:00:52.182Z,100.00
2022-11-01T15:04:00.275Z,100.00
2022-11-01T15:07:27.836Z,100.00
2022-11-01T15:10:43.503Z,100.00
2022-11-01T15:13:50.140Z,100.00
2022-11-01T15:16:56.834Z,100.00
2022-11-01T15:20:13.422Z,100.00
2022-11-01T15:23:27.791Z,100.00
2022-11-01T15:26:34.399Z,100.00
2022-11-01T15:29:39.528Z,100.00
2022-11-01T15:32:45.355Z,100.00
2022-11-01T15:35:56.489Z,100.00
2022-11-01T15:39:05.005Z,100.00
2022-11-01T15:42:20.418Z,100.00
2022-11-01T15:45:31.037Z,100.00
2022-11-01T15:48:38.325Z,100.00
2022-11-01T15:51:55.791Z,100.00
2022-11-01T15:55:17.344Z,100.00
2022-11-01T15:58:30.984Z,100.00
2022-11-01T16:01:38.279Z,100.00
2022-11-01T16:04:46.844Z,100.00
2022-11-01T16:07:53.019Z,100.00
2022-11-01T16:11:00.110Z,100.00
2022-11-01T16:14:14.790Z,100.00
2022-11-01T16:17:34.195Z,100.00
2022-11-01T16:20:47.438Z,100.00
2022-11-01T16:23:57.890Z,100.00
2022-11-01T16:27:08.220Z,100.00
2022-11-01T16:30:46.551Z,100.00
2022-11-01T16:33:56.689Z,100.00
2022-11-01T16:37:01.942Z,100.00
2022-11-01T16:40:27.101Z,100.00
2022-11-01T16:43:35.204Z,100.00
2022-11-01T16:46:40.931Z,100.00
2022-11-01T16:49:54.600Z,100.00
2022-11-01T16:53:00.691Z,100.00
2022-11-01T16:56:35.114Z,100.00
2022-11-01T16:59:38.379Z,100.00
2022-11-01T17:02:44.755Z,100.00
2022-11-01T17:05:56.059Z,100.00
2022-11-01T17:09:02.351Z,100.00
2022-11-01T17:12:08.722Z,100.00
2022-11-01T17:15:18.535Z,100.00
2022-11-01T17:18:32.668Z,100.00
2022-11-01T17:21:40.082Z,100.00
2022-11-01T17:24:46.345Z,100.00
2022-11-01T17:27:52.168Z,100.00
2022-11-01T17:30:57.651Z,100.00
2022-11-01T17:34:03.478Z,100.00
2022-11-01T17:37:15.052Z,100.00
2022-11-01T17:40:21.911Z,100.00
2022-11-01T17:43:27.121Z,100.00
2022-11-01T17:46:32.727Z,100.00
2022-11-01T17:49:38.626Z,100.00
2022-11-01T17:52:44.331Z,100.00
2022-11-01T17:55:57.293Z,100.00
2022-11-01T17:59:02.951Z,100.00
2022-11-01T18:02:10.135Z,100.00
2022-11-01T18:05:15.814Z,100.00
2022-11-01T18:08:26.361Z,100.00
2022-11-01T18:11:51.825Z,100.00
2022-11-01T18:15:22.384Z,100.00
2022-11-01T18:18:49.316Z,100.00
2022-11-01T18:22:31.508Z,100.00
2022-11-01T18:25:41.311Z,100.00
2022-11-01T18:28:46.641Z,100.00
2022-11-01T18:32:02.708Z,100.00
2022-11-01T18:35:25.026Z,100.00
2022-11-01T18:38:42.567Z,100.00
2022-11-01T18:41:50.131Z,100.00
2022-11-01T18:45:06.636Z,100.00
2022-11-01T18:48:29.034Z,100.00
2022-11-01T18:51:34.838Z,100.00
2022-11-01T18:54:56.058Z,100.00
2022-11-01T18:58:16.726Z,100.00
2022-11-01T19:01:33.896Z,100.00
2022-11-01T19:04:43.224Z,100.00
2022-11-01T19:08:10.965Z,100.00
2022-11-01T19:11:17.765Z,100.00
2022-11-01T19:14:23.594Z,100.00
2022-11-01T19:17:37.482Z,100.00
2022-11-01T19:20:53.099Z,100.00
2022-11-01T19:23:58.602Z,100.00
2022-11-01T19:27:15.766Z,100.00
2022-11-01T19:30:29.004Z,100.00
2022-11-01T19:33:38.162Z,100.00
2022-11-01T19:36:45.126Z,100.00
2022-11-01T19:39:50.624Z,100.00
2022-11-01T19:42:58.242Z,100.00
2022-11-01T19:46:03.383Z,100.00
2022-11-01T19:49:38.015Z,100.00
2022-11-01T19:52:47.439Z,100.00
2022-11-01T19:55:58.423Z,100.00
2022-11-01T19:59:17.020Z,100.00
2022-11-01T20:02:25.017Z,100.00
2022-11-01T20:05:36.020Z,100.00
2022-11-01T20:08:44.409Z,100.00
2022-11-01T20:11:51.926Z,100.00
2022-11-01T20:14:57.691Z,100.00
2022-11-01T20:18:04.634Z,100.00
2022-11-01T20:21:11.827Z,100.00
2022-11-01T20:24:19.293Z,100.00
2022-11-01T20:27:26.390Z,100.00
2022-11-01T20:30:32.253Z,100.00
2022-11-01T20:33:39.392Z,100.00
2022-11-01T20:37:02.168Z,100.00
2022-11-01T20:40:15.067Z,100.00
2022-11-01T20:43:21.986Z,100.00
2022-11-01T20:46:27.895Z,100.00
2022-11-01T20:49:34.973Z,100.00
2022-11-01T20:52:41.741Z,100.00
2022-11-01T20:55:48.537Z,100.00
2022-11-01T20:58:55.424Z,100.00
2022-11-01T21:02:01.341Z,100.00
2022-11-01T21:05:29.650Z,100.00
2022-11-01T21:08:37.350Z,100.00
2022-11-01T21:11:46.375Z,100.00
2022-11-01T21:14:54.987Z,100.00
2022-11-01T21:18:03.426Z,100.00
2022-11-01T21:21:14.717Z,100.00
2022-11-01T21:24:36.470Z,100.00
2022-11-01T21:27:43.460Z,100.00
2022-11-01T21:30:48.900Z,100.00
2022-11-01T21:34:04.854Z,100.00
2022-11-01T21:37:10.501Z,100.00
2022-11-01T21:40:34.315Z,100.00
2022-11-01T21:43:39.812Z,100.00
2022-11-01T21:46:54.679Z,100.00
2022-11-01T21:50:00.238Z,100.00
2022-11-01T21:53:06.331Z,100.00
2022-11-01T21:56:12.303Z,100.00
2022-11-01T21:59:17.892Z,100.00
2022-11-01T22:02:23.890Z,100.00
2022-11-01T22:05:29.812Z,100.00
2022-11-01T22:08:35.456Z,100.00
2022-11-01T22:11:41.275Z,100.00
2022-11-01T22:14:46.393Z,100.00
2022-11-01T22:17:51.873Z,100.00
2022-11-01T22:20:57.417Z,100.00
2022-11-01T22:24:03.868Z,100.00
2022-11-01T22:27:09.116Z,100.00
2022-11-01T22:30:15.808Z,100.00
2022-11-01T22:33:21.595Z,100.00
2022-11-01T22:36:29.763Z,100.00
2022-11-01T22:39:36.009Z,100.00
2022-11-01T22:42:41.969Z,100.00
2022-11-01T22:45:47.751Z,100.00
2022-11-01T22:49:01.031Z,100.00
2022-11-01T22:52:34.006Z,100.00
2022-11-01T22:55:43.593Z,100.00
2022-11-01T22:58:51.281Z,100.00
2022-11-01T23:02:07.600Z,100.00
2022-11-01T23:05:13.499Z,100.00
2022-11-01T23:08:32.474Z,100.00
2022-11-01T23:11:56.494Z,100.00
2022-11-01T23:15:01.644Z,100.00
2022-11-01T23:18:23.094Z,100.00
2022-11-01T23:21:28.969Z,100.00
2022-11-01T23:24:34.407Z,100.00
2022-11-01T23:27:44.488Z,100.00
2022-11-01T23:30:50.002Z,100.00
2022-11-01T23:33:55.921Z,100.00
2022-11-01T23:37:01.074Z,100.00
2022-11-01T23:40:16.883Z,100.00
2022-11-01T23:43:32.982Z,100.00
2022-11-01T23:46:38.680Z,100.00
2022-11-01T23:49:46.804Z,100.00
2022-11-01T23:52:58.841Z,100.00
2022-11-01T23:56:07.218Z,100.00
2022-11-01T23:59:12.740Z,100.00
